Flight Track Log - Related Links

Times and Time Zones

All times are in EST time to prevent confusion due to time zone crossing. See the CHQ6103 flight status page for this flight to view local times or setup timezone preferences in your user account.

Time Position Orientation Groundspeed Altitude Reporting Facility
EST Latitude Longitude Course Direction KTS MPH feet Rate Location/Type
Fri 05:44:40 PM 40.0014 -82.8742 21° North 148 170 1,400  Level Indianapolis Center
Fri 05:45:47 PM 39.9994 -82.8031 92° East 181 208 3,700 1,808 Climbing Indianapolis Center
Fri 05:45:53 PM 39.9986 -82.8042 226° Southwest 184 212 3,600 1,676 Descending Indianapolis Center
Fri 05:46:55 PM 40.0467 -82.7525 39° Northeast 222 255 5,600 2,371 Climbing Indianapolis Center
Fri 05:47:57 PM 40.1278 -82.7147 20° North 257 296 8,500 2,226 Climbing Indianapolis Center
Fri 05:48:59 PM 40.2028 -82.6833 18° North 275 316 10,200 1,210 Climbing Indianapolis Center
Fri 05:50:00 PM 40.4646 -82.5594 21° North  Level FlightAware Approximate
Fri 05:50:01 PM 40.2900 -82.6422 20° North 316 364 11,000  Level Indianapolis Center
Fri 05:51:03 PM 40.3883 -82.6017 17° North 356 410 11,000  Level Indianapolis Center
Fri 05:52:05 PM 40.4856 -82.5575 19° North 361 415 11,000  Level Indianapolis Center
Fri 05:53:08 PM 40.5817 -82.5147 19° North 362 417 11,000 432 Level Indianapolis Center
Fri 05:54:10 PM 40.6772 -82.4719 19° North 361 415 11,900 1,016 Climbing Indianapolis Center
Fri 05:55:12 PM 40.7861 -82.4219 19° North 355 409 13,100 581 Climbing Indianapolis Center
Fri 05:56:14 PM 40.8853 -82.3767 19° North 367 422 13,100  Level Indianapolis Center
Fri 05:57:16 PM 40.9900 -82.3792 359° North 369 425 13,100  Level Indianapolis Center
Fri 05:58:17 PM 41.0847 -82.4303 338° Northwest 363 418 13,100  Level Cleveland Center
Fri 05:59:20 PM 41.1783 -82.4819 337° Northwest 363 418 13,100  Level Cleveland Center
Fri 06:00:22 PM 41.2714 -82.5308 338° Northwest 360 414 13,100  Level Cleveland Center
Fri 06:01:24 PM 41.3653 -82.5819 338° Northwest 358 412 13,100 -194 Level Cleveland Center
Fri 06:02:26 PM 41.4567 -82.6322 338° Northwest 357 411 12,700 -545 Descending Cleveland Center
Fri 06:02:52 PM 41.5072 -82.6619 336° Northwest 347 399 12,300 -581 Descending Cleveland Center
Fri 06:03:28 PM 41.5606 -82.6900 339° North 347 399 12,100 -367 Descending Cleveland Center
Fri 06:03:41 PM 41.5736 -82.6983 334° Northwest 339 390 12,000 -88 Descending Cleveland Center
Fri 06:04:36 PM 41.6542 -82.7425 338° Northwest 336 387 12,000 -54 Level Cleveland Center
Fri 06:05:32 PM 41.7386 -82.7969 334° Northwest 343 395 11,900  Descending Cleveland Center
Fri 06:05:37 PM 41.7458 -82.8047 321° Northwest 342 394 12,000 97 Climbing Cleveland Center
Fri 06:06:34 PM 41.8075 -82.8786 318° Northwest 332 382 12,000  Level Cleveland Center
Fri 06:06:38 PM 41.8150 -82.8894 313° West 330 380 12,000  Level Cleveland Center
Fri 06:07:39 PM 41.8864 -82.9717 319° Northwest 340 391 12,000  Level Cleveland Center
Fri 06:08:38 PM 41.9481 -83.0461 318° Northwest 336 387 12,000  Level Cleveland Center
Fri 06:08:40 PM 41.9556 -83.0567 314° West 341 392 12,000  Level Cleveland Center
Fri 06:09:40 PM 42.0244 -83.1367 319° Northwest 337 388 12,000  Level Cleveland Center
Fri 06:09:41 PM 42.0264 -83.1422 295° West 302 348 12,000 -95 Level Cleveland Center
Fri 06:10:43 PM 42.0719 -83.1944 320° Northwest 270 311 11,900 -439 Descending Cleveland Center
Fri 06:11:44 PM 42.1328 -83.2300 337° Northwest 208 239 11,100 -774 Descending Cleveland Center
Fri 06:11:45 PM 42.1331 -83.2297 37° Northeast 208 239 11,100 -1,333 Level Cleveland Center
Fri 06:12:47 PM 42.1894 -83.2114 14° North 226 260 9,700 -1,258 Descending Cleveland Center
Fri 06:13:49 PM 42.2469 -83.1739 26° Northeast 232 267 8,500 -1,292 Descending Cleveland Center
Fri 06:13:52 PM 42.2550 -83.1681 28° Northeast 231 266 8,300 -1,161 Descending Cleveland Center
Fri 06:14:51 PM 42.3042 -83.1372 25° Northeast 232 267 7,300 -1,180 Descending Cleveland Center
Fri 06:14:53 PM 42.3142 -83.1339 14° North 229 264 7,100 -1,238 Descending Cleveland Center
Fri 06:15:54 PM 42.3667 -83.1328 North 172 198 6,000 -1,082 Descending Cleveland Center
Fri 06:16:55 PM 42.3706 -83.1897 275° West 153 176 4,900 -1,138 Descending Cleveland Center
Fri 06:17:50 PM 42.3486 -83.2319 235° Southwest 153 176 3,800 -1,065 Descending Cleveland Center
Fri 06:17:57 PM 42.3489 -83.2342 280° West 154 177 3,800 -885 Level Cleveland Center
Fri 06:18:51 PM 42.3147 -83.2639 213° Southwest 149 171 2,900 -871 Descending Cleveland Center
Fri 06:18:59 PM 42.3144 -83.2639 180° South 152 175 2,900 -885 Level Cleveland Center
Fri 06:19:52 PM 42.2747 -83.2922 208° Southwest 155 178 2,000 -857 Descending Cleveland Center
Fri 06:20:02 PM 42.2756 -83.2917 26° Northeast 152 175 2,000 -774 Level Cleveland Center
Fri 06:20:54 PM 42.2414 -83.3186 210° Southwest 138 159 1,200 -774 Descending Cleveland Center
Fri 06:21:04 PM 42.2422 -83.3175 45° Northeast 147 169 1,200 -250 Level Cleveland Center
Fri 06:22:06 PM 42.2033 -83.3472 210° Southwest 142 163 900 -290 Descending Cleveland Center

Login

Don't have an account? Register now (free) for customized features, flight alerts, and more!